Time;durP1;ratioP1;P1;durP2;ratioP2;P2;SDS_P1;SDS_P2;PMS_P1;PMS_P2;Temp;Humidity;BMP_temperature;BMP_pressure;BME280_temperature;BME280_humidity;BME280_pressure;Samples;Min_cycle;Max_cycle;Signal;HPM_P1;HPM_P2
2021/12/12 00:00:57;;;;;;;148.55;48.75;;;3.80;99.90;;;;;;5054885;28;20061;-78
2021/12/12 00:03:37;;;;;;;155.70;48.67;;;3.60;99.90;;;;;;5053531;28;20022;-77
2021/12/12 00:06:13;;;;;;;154.00;49.45;;;3.60;99.90;;;;;;5047731;28;20104;-77
2021/12/12 00:08:42;;;;;;;153.68;50.90;;;3.60;99.90;;;;;;5038328;28;20029;-79
2021/12/12 00:11:11;;;;;;;163.05;49.65;;;3.60;99.90;;;;;;5036703;28;20021;-77
2021/12/12 00:13:52;;;;;;;158.45;51.67;;;3.60;99.90;;;;;;5038387;28;20021;-78
2021/12/12 00:16:18;;;;;;;166.15;51.83;;;3.60;99.90;;;;;;5037089;28;20048;-79
2021/12/12 00:18:44;;;;;;;154.45;47.85;;;3.60;99.90;;;;;;5042507;28;20049;-78
2021/12/12 00:21:16;;;;;;;154.02;48.92;;;3.70;99.90;;;;;;5041330;28;20025;-79
2021/12/12 00:23:42;;;;;;;152.75;49.15;;;3.60;99.90;;;;;;5038879;28;20056;-77
2021/12/12 00:26:07;;;;;;;148.73;49.13;;;3.60;99.90;;;;;;5039516;28;20025;-78
2021/12/12 00:28:34;;;;;;;154.15;49.65;;;3.60;99.90;;;;;;5039773;28;20060;-78
2021/12/12 00:31:08;;;;;;;149.98;47.88;;;3.60;99.90;;;;;;5041428;28;20487;-78
2021/12/12 00:33:34;;;;;;;143.40;46.43;;;3.70;99.90;;;;;;5038132;28;20085;-77
2021/12/12 00:36:00;;;;;;;148.48;46.95;;;3.70;99.90;;;;;;5036306;28;20021;-78
2021/12/12 00:38:30;;;;;;;150.50;46.30;;;3.70;99.90;;;;;;5036804;28;20483;-78
2021/12/12 00:40:59;;;;;;;152.55;49.20;;;3.70;99.90;;;;;;5036423;28;20385;-77
2021/12/12 00:43:31;;;;;;;150.90;46.97;;;3.70;99.90;;;;;;5038889;28;20025;-78
2021/12/12 00:46:00;;;;;;;145.40;46.97;;;3.70;99.90;;;;;;5037568;28;20417;-78
2021/12/12 00:48:28;;;;;;;147.35;48.80;;;3.70;99.90;;;;;;5036535;28;20034;-78
2021/12/12 00:50:53;;;;;;;159.48;47.90;;;3.70;99.90;;;;;;5036300;28;20029;-77
2021/12/12 00:53:21;;;;;;;149.68;49.75;;;3.60;99.90;;;;;;5036622;28;20402;-76
2021/12/12 00:55:48;;;;;;;134.95;45.65;;;3.60;99.90;;;;;;5036002;28;20025;-77
2021/12/12 00:58:17;;;;;;;142.63;48.08;;;3.70;99.90;;;;;;5035119;28;20057;-78
2021/12/12 01:00:52;;;;;;;147.65;48.50;;;3.80;99.90;;;;;;5037357;28;20092;-77
2021/12/12 01:03:26;;;;;;;142.60;46.78;;;3.80;99.90;;;;;;5036536;28;20486;-77
2021/12/12 01:05:53;;;;;;;134.93;44.78;;;3.80;99.90;;;;;;5037303;28;20053;-77
2021/12/12 01:08:19;;;;;;;144.18;47.75;;;3.80;99.90;;;;;;5042217;28;20021;-77
2021/12/12 01:10:52;;;;;;;154.98;48.92;;;3.80;99.90;;;;;;5048167;28;20032;-77
2021/12/12 01:13:18;;;;;;;139.65;46.88;;;3.70;99.90;;;;;;5054364;28;20014;-78
2021/12/12 01:16:09;;;;;;;150.43;48.70;;;3.80;99.90;;;;;;5049096;28;20104;-78
2021/12/12 01:18:41;;;;;;;135.48;46.75;;;3.80;99.90;;;;;;5043059;28;20056;-78
2021/12/12 01:21:14;;;;;;;139.88;48.78;;;3.70;99.90;;;;;;5036758;28;20021;-78
2021/12/12 01:23:47;;;;;;;154.15;48.80;;;3.70;99.90;;;;;;5040071;28;20043;-78
2021/12/12 01:26:13;;;;;;;160.48;48.63;;;3.70;99.90;;;;;;5042012;28;20525;-78
2021/12/12 01:28:43;;;;;;;144.63;46.10;;;3.70;99.90;;;;;;5042965;28;20063;-78
2021/12/12 01:31:12;;;;;;;154.18;49.10;;;3.70;99.90;;;;;;5041995;28;20045;-77
2021/12/12 01:33:39;;;;;;;140.50;47.50;;;3.70;99.90;;;;;;5042527;28;20014;-77
2021/12/12 01:36:23;;;;;;;144.48;50.10;;;3.70;99.90;;;;;;5036914;28;20112;-77
2021/12/12 01:38:55;;;;;;;144.40;47.67;;;3.70;99.90;;;;;;5038644;28;20057;-78
2021/12/12 01:41:26;;;;;;;130.45;44.90;;;3.70;99.90;;;;;;5041731;28;20026;-77
2021/12/12 01:43:59;;;;;;;157.05;51.85;;;3.70;99.90;;;;;;5042644;28;20021;-77
2021/12/12 01:46:29;;;;;;;151.18;48.20;;;3.80;99.90;;;;;;5042822;28;20052;-78
2021/12/12 01:49:07;;;;;;;146.95;48.63;;;3.80;99.90;;;;;;5043482;28;20056;-77
2021/12/12 01:51:33;;;;;;;158.02;48.40;;;3.90;99.90;;;;;;5032591;28;20029;-78
2021/12/12 01:54:01;;;;;;;142.48;46.65;;;3.90;99.90;;;;;;5034343;28;20018;-78
2021/12/12 01:56:39;;;;;;;152.65;48.47;;;3.90;99.90;;;;;;5035638;28;20122;-78
2021/12/12 01:59:06;;;;;;;146.52;47.55;;;3.90;99.90;;;;;;5043233;28;20026;-79
2021/12/12 02:01:40;;;;;;;135.25;45.53;;;3.90;99.90;;;;;;5046650;28;20067;-78
2021/12/12 02:04:21;;;;;;;144.70;45.57;;;3.90;99.90;;;;;;5043277;28;20025;-78
2021/12/12 02:06:50;;;;;;;149.00;46.20;;;3.90;99.90;;;;;;5033996;28;20334;-77
2021/12/12 02:09:18;;;;;;;135.88;44.08;;;3.90;99.90;;;;;;5033570;28;20104;-77
2021/12/12 02:11:46;;;;;;;132.27;45.15;;;4.00;99.90;;;;;;5038519;28;20049;-78
2021/12/12 02:14:16;;;;;;;137.07;43.83;;;4.00;99.90;;;;;;5039532;28;20099;-78
2021/12/12 02:16:48;;;;;;;132.63;44.10;;;4.00;99.90;;;;;;5034712;28;20398;-78
2021/12/12 02:19:15;;;;;;;130.35;41.80;;;4.00;99.90;;;;;;5036201;28;20021;-78
2021/12/12 02:22:23;;;;;;;130.85;43.50;;;3.90;99.90;;;;;;5033666;28;20056;-78
2021/12/12 02:35:07;;;;;;;132.63;41.88;;;4.00;99.90;;;;;;5036674;28;20048;-78
2021/12/12 02:35:49;;;;;;;121.82;40.58;;;4.10;99.90;;;;;;5038132;28;20044;-79
2021/12/12 02:38:30;;;;;;;127.20;41.05;;;4.00;99.90;;;;;;5036290;28;20514;-77
2021/12/12 02:41:04;;;;;;;127.03;44.10;;;4.00;99.90;;;;;;5037502;28;20092;-79
2021/12/12 02:43:34;;;;;;;90.10;30.80;;;4.10;99.90;;;;;;5038620;28;20056;-78
2021/12/12 02:46:00;;;;;;;122.80;41.28;;;4.00;99.90;;;;;;5039563;28;20043;-79
2021/12/12 02:48:30;;;;;;;122.03;42.05;;;4.10;99.90;;;;;;5040223;28;20029;-77
2021/12/12 02:50:58;;;;;;;128.85;42.60;;;4.10;99.90;;;;;;5040936;28;20036;-79
2021/12/12 02:53:38;;;;;;;125.82;42.03;;;4.10;99.90;;;;;;5041418;28;20036;-78
2021/12/12 02:56:14;;;;;;;130.43;43.08;;;4.10;99.90;;;;;;5042203;28;20037;-77
2021/12/12 02:58:42;;;;;;;131.18;43.00;;;4.10;99.90;;;;;;5037617;28;20030;-80
2021/12/12 03:01:10;;;;;;;114.60;42.70;;;4.10;99.90;;;;;;5033941;28;20040;-80
2021/12/12 03:03:37;;;;;;;117.70;41.67;;;4.10;99.90;;;;;;5035336;28;20033;-78
2021/12/12 03:06:06;;;;;;;125.47;42.60;;;4.10;99.90;;;;;;5037463;28;20557;-78
2021/12/12 03:08:32;;;;;;;127.60;43.70;;;4.00;99.90;;;;;;5041580;28;20032;-77
2021/12/12 03:10:58;;;;;;;136.60;44.95;;;4.10;99.90;;;;;;5035528;28;20021;-77
2021/12/12 03:13:24;;;;;;;126.97;44.38;;;4.00;99.90;;;;;;5040036;28;20022;-77
2021/12/12 03:15:51;;;;;;;127.28;44.15;;;4.10;99.90;;;;;;5042091;28;20404;-78
2021/12/12 03:18:27;;;;;;;119.18;45.05;;;4.10;99.90;;;;;;5055329;28;20057;-80
2021/12/12 03:20:59;;;;;;;117.82;41.72;;;4.20;99.90;;;;;;5055834;28;20029;-79
2021/12/12 03:23:28;;;;;;;119.97;42.72;;;4.20;99.90;;;;;;5055347;28;20033;-78
2021/12/12 03:25:59;;;;;;;126.75;42.15;;;4.30;99.90;;;;;;5056898;28;20037;-78
2021/12/12 03:28:29;;;;;;;132.18;45.70;;;4.30;99.90;;;;;;5045191;28;20022;-78
2021/12/12 03:30:57;;;;;;;120.53;43.55;;;4.30;99.90;;;;;;5049115;28;20013;-77
2021/12/12 03:33:24;;;;;;;114.53;43.63;;;4.30;99.90;;;;;;5056320;28;20045;-78
2021/12/12 03:35:54;;;;;;;124.72;44.72;;;4.30;99.90;;;;;;5059854;28;20028;-77
2021/12/12 03:38:23;;;;;;;123.05;44.05;;;4.30;99.90;;;;;;5060172;28;20018;-77
2021/12/12 03:40:50;;;;;;;111.97;42.90;;;4.40;99.90;;;;;;5059180;28;20013;-78
2021/12/12 03:43:15;;;;;;;120.20;43.13;;;4.50;99.90;;;;;;5059150;28;20045;-77
2021/12/12 03:45:43;;;;;;;121.30;43.33;;;4.40;99.90;;;;;;5058140;28;20085;-75
2021/12/12 03:48:23;;;;;;;132.55;44.97;;;4.40;99.90;;;;;;5059296;28;20037;-76
2021/12/12 03:50:53;;;;;;;126.95;44.67;;;4.40;99.90;;;;;;5058896;28;20195;-77
2021/12/12 03:53:19;;;;;;;121.35;43.80;;;4.30;99.90;;;;;;5050014;28;20093;-77
2021/12/12 03:55:47;;;;;;;131.85;46.15;;;4.40;99.90;;;;;;5055957;28;20018;-76
2021/12/12 03:58:14;;;;;;;127.85;45.90;;;4.40;99.90;;;;;;5056064;28;20034;-77
2021/12/12 04:00:56;;;;;;;122.63;45.00;;;4.50;99.90;;;;;;5044307;28;20052;-77
2021/12/12 04:03:22;;;;;;;127.60;45.28;;;4.50;99.90;;;;;;5041714;28;20112;-78
2021/12/12 04:05:54;;;;;;;131.50;45.72;;;4.50;99.90;;;;;;5055698;28;20040;-79
2021/12/12 04:08:28;;;;;;;141.65;46.45;;;4.40;99.90;;;;;;5051445;28;20018;-77
2021/12/12 04:10:54;;;;;;;137.93;45.97;;;4.40;99.90;;;;;;5052326;28;20018;-76
2021/12/12 04:13:20;;;;;;;147.98;47.65;;;4.40;99.90;;;;;;5056702;28;20041;-77
2021/12/12 04:15:52;;;;;;;143.38;47.10;;;4.40;99.90;;;;;;5053999;28;20025;-77
2021/12/12 04:18:23;;;;;;;147.50;48.67;;;4.50;99.90;;;;;;5051641;28;20022;-77
2021/12/12 04:20:49;;;;;;;129.02;46.72;;;4.50;99.90;;;;;;5043800;28;20025;-77
2021/12/12 04:23:27;;;;;;;147.57;50.53;;;4.50;99.90;;;;;;5042959;28;20037;-77
2021/12/12 04:25:54;;;;;;;140.77;46.67;;;4.60;99.90;;;;;;5044438;28;20394;-78
2021/12/12 04:28:19;;;;;;;151.50;49.25;;;4.60;99.90;;;;;;5042743;28;20029;-78
2021/12/12 04:30:47;;;;;;;147.10;51.65;;;4.60;99.90;;;;;;5037302;28;20032;-78
2021/12/12 04:33:13;;;;;;;132.20;48.53;;;4.70;99.90;;;;;;5035642;28;20018;-78
2021/12/12 04:35:38;;;;;;;152.00;51.47;;;4.70;99.90;;;;;;5034510;28;20051;-77
2021/12/12 04:38:05;;;;;;;154.57;50.65;;;4.80;99.90;;;;;;5036520;28;20407;-77
2021/12/12 04:40:33;;;;;;;154.55;52.08;;;4.70;99.90;;;;;;5034237;28;20101;-77
2021/12/12 04:43:00;;;;;;;153.38;51.60;;;4.70;99.90;;;;;;5035908;28;20454;-79
2021/12/12 04:45:57;;;;;;;144.98;50.78;;;4.70;99.90;;;;;;5036533;28;20466;-77
2021/12/12 04:51:41;;;;;;;144.82;52.17;;;4.70;99.90;;;;;;5037021;28;20028;-76
2021/12/12 04:54:28;;;;;;;152.75;53.35;;;4.80;99.90;;;;;;5041673;28;20038;-77
2021/12/12 04:57:06;;;;;;;146.55;51.63;;;4.80;99.90;;;;;;5053343;28;20053;-78
2021/12/12 04:59:40;;;;;;;163.07;54.47;;;4.80;99.90;;;;;;5042661;28;20111;-77
2021/12/12 05:02:19;;;;;;;159.73;53.13;;;5.00;99.90;;;;;;5038557;28;20472;-78
2021/12/12 05:04:58;;;;;;;151.15;51.38;;;4.90;99.90;;;;;;5038340;28;20025;-77
2021/12/12 05:07:26;;;;;;;170.68;54.17;;;4.90;99.90;;;;;;5036550;28;20036;-78
2021/12/12 05:10:00;;;;;;;159.13;53.13;;;4.90;99.90;;;;;;5037064;28;20021;-77
2021/12/12 05:12:31;;;;;;;166.57;52.80;;;4.90;99.90;;;;;;5036324;28;20029;-78
2021/12/12 05:15:06;;;;;;;166.30;55.40;;;4.90;99.90;;;;;;5036390;28;20029;-77
2021/12/12 05:17:49;;;;;;;174.30;55.40;;;5.00;99.90;;;;;;5036433;28;20056;-77
2021/12/12 05:20:25;;;;;;;163.70;54.38;;;5.00;99.90;;;;;;5050072;28;20017;-77
2021/12/12 05:22:55;;;;;;;152.07;51.45;;;5.00;99.90;;;;;;5040983;28;20486;-76
2021/12/12 05:25:25;;;;;;;173.27;55.72;;;5.00;99.90;;;;;;5047024;28;20030;-75
2021/12/12 05:27:55;;;;;;;153.00;52.53;;;5.00;99.90;;;;;;5053098;28;20006;-78
2021/12/12 05:30:32;;;;;;;161.70;52.83;;;5.10;99.90;;;;;;5054528;28;20025;-79
2021/12/12 05:33:00;;;;;;;165.65;53.45;;;5.10;99.90;;;;;;5053323;28;20026;-78
2021/12/12 05:35:30;;;;;;;153.48;54.15;;;5.10;99.90;;;;;;5046902;28;20437;-78
2021/12/12 05:37:57;;;;;;;189.02;57.33;;;5.00;99.90;;;;;;5046499;28;20033;-78
2021/12/12 05:40:25;;;;;;;168.70;54.00;;;5.00;99.90;;;;;;5040632;28;20048;-79
2021/12/12 05:42:53;;;;;;;153.25;53.85;;;5.00;99.90;;;;;;5036671;28;20079;-78
2021/12/12 05:45:19;;;;;;;160.98;53.45;;;5.10;99.90;;;;;;5037488;28;20021;-78
2021/12/12 05:47:46;;;;;;;166.50;51.97;;;5.10;99.90;;;;;;5040157;28;20120;-79
2021/12/12 05:50:15;;;;;;;152.80;52.45;;;5.10;99.90;;;;;;5039912;28;20379;-78
2021/12/12 05:52:45;;;;;;;166.82;54.45;;;5.20;99.90;;;;;;5043472;28;20057;-77
2021/12/12 05:55:14;;;;;;;165.68;52.88;;;5.20;99.90;;;;;;5043812;28;20021;-78
2021/12/12 05:57:43;;;;;;;160.90;51.58;;;5.20;99.90;;;;;;5047682;28;20017;-79
2021/12/12 06:00:15;;;;;;;152.82;51.63;;;5.20;99.90;;;;;;5047680;28;20064;-79
2021/12/12 06:02:41;;;;;;;154.30;52.92;;;5.30;99.90;;;;;;5048083;28;20086;-78
2021/12/12 06:05:08;;;;;;;151.35;49.63;;;5.20;99.90;;;;;;5049684;28;20034;-75
2021/12/12 06:07:34;;;;;;;153.85;50.85;;;5.20;99.90;;;;;;5053514;28;20025;-75
2021/12/12 06:10:04;;;;;;;161.88;51.05;;;5.30;99.90;;;;;;5053464;28;20021;-74
2021/12/12 06:12:33;;;;;;;149.80;50.88;;;5.30;99.90;;;;;;5041230;28;20021;-77
2021/12/12 06:14:59;;;;;;;150.98;51.53;;;5.30;99.90;;;;;;5050489;28;20506;-75
2021/12/12 06:17:26;;;;;;;153.13;50.65;;;5.30;99.90;;;;;;5051248;28;20037;-78
2021/12/12 06:19:53;;;;;;;139.88;49.03;;;5.20;99.90;;;;;;5046550;28;20068;-79
2021/12/12 06:22:20;;;;;;;145.38;48.50;;;5.30;99.90;;;;;;5036899;28;20050;-77
2021/12/12 06:24:48;;;;;;;132.95;45.65;;;5.30;99.90;;;;;;5036111;28;20085;-77
2021/12/12 06:27:16;;;;;;;145.93;49.25;;;5.30;99.90;;;;;;5051178;28;20083;-79
2021/12/12 06:29:45;;;;;;;135.77;45.60;;;5.40;99.90;;;;;;5037049;28;20065;-77
2021/12/12 06:32:10;;;;;;;137.23;45.42;;;5.40;99.90;;;;;;5036926;28;20018;-78
2021/12/12 06:34:36;;;;;;;131.90;45.33;;;5.50;99.90;;;;;;5036845;28;20108;-77
2021/12/12 06:37:04;;;;;;;138.73;46.13;;;5.40;99.90;;;;;;5041482;28;20033;-76
2021/12/12 06:39:31;;;;;;;127.10;44.00;;;5.40;99.90;;;;;;5061903;28;20025;-75
2021/12/12 06:41:57;;;;;;;132.52;44.28;;;5.40;99.90;;;;;;5045154;28;20030;-76
2021/12/12 06:44:23;;;;;;;119.03;44.85;;;5.30;99.90;;;;;;5040526;28;20045;-78
2021/12/12 06:46:49;;;;;;;115.40;41.88;;;5.30;99.90;;;;;;5051217;28;20056;-78
2021/12/12 06:49:17;;;;;;;117.07;41.22;;;5.30;99.90;;;;;;5056667;28;20026;-76
2021/12/12 06:51:49;;;;;;;130.65;41.03;;;5.40;99.90;;;;;;5057211;28;20013;-78
2021/12/12 06:54:17;;;;;;;117.50;41.85;;;5.40;99.90;;;;;;5054357;28;20494;-79
2021/12/12 06:56:43;;;;;;;121.35;41.75;;;5.40;99.90;;;;;;5041943;28;20037;-78
2021/12/12 06:59:09;;;;;;;119.53;41.58;;;5.30;99.90;;;;;;5040402;28;20103;-77
2021/12/12 07:01:35;;;;;;;112.55;40.47;;;5.30;99.90;;;;;;5042066;28;20408;-79
2021/12/12 07:04:05;;;;;;;126.88;38.63;;;5.30;99.90;;;;;;5043142;28;20087;-77
2021/12/12 07:06:32;;;;;;;114.05;39.28;;;5.40;99.90;;;;;;5041053;28;20187;-77
2021/12/12 07:09:01;;;;;;;105.50;37.63;;;5.40;99.90;;;;;;5043257;28;20029;-77
2021/12/12 07:11:27;;;;;;;113.57;38.88;;;5.40;99.90;;;;;;5042569;28;20479;-79
2021/12/12 07:13:54;;;;;;;102.78;37.80;;;5.50;99.90;;;;;;5045012;28;20045;-77
2021/12/12 07:16:21;;;;;;;107.63;36.78;;;5.50;99.90;;;;;;5048504;28;20033;-76
2021/12/12 07:18:48;;;;;;;98.57;36.83;;;5.40;99.90;;;;;;5049829;28;20029;-77
2021/12/12 07:21:16;;;;;;;94.20;35.17;;;5.50;99.90;;;;;;5048677;28;20029;-77
2021/12/12 07:23:43;;;;;;;90.82;34.10;;;5.40;99.90;;;;;;5051577;28;20097;-76
2021/12/12 07:26:10;;;;;;;92.50;34.25;;;5.40;99.90;;;;;;5055471;28;20065;-77
2021/12/12 07:28:37;;;;;;;97.72;32.67;;;5.40;99.90;;;;;;5056724;28;20110;-78
2021/12/12 07:31:06;;;;;;;89.93;32.15;;;5.40;99.90;;;;;;5057580;28;20034;-79
2021/12/12 07:33:33;;;;;;;98.03;32.70;;;5.40;99.90;;;;;;5058561;28;20036;-77
2021/12/12 07:36:01;;;;;;;93.00;31.08;;;5.30;99.90;;;;;;5047108;28;20027;-79
2021/12/12 07:38:28;;;;;;;86.05;29.92;;;5.30;99.90;;;;;;5050985;28;20462;-79
2021/12/12 07:40:54;;;;;;;81.60;30.00;;;5.40;99.90;;;;;;5056260;28;20037;-78
2021/12/12 07:43:21;;;;;;;82.95;28.20;;;5.40;99.90;;;;;;5058196;28;20021;-77
2021/12/12 07:45:47;;;;;;;87.40;28.27;;;5.50;99.90;;;;;;5051932;28;20038;-77
2021/12/12 07:48:13;;;;;;;72.55;27.50;;;5.50;99.90;;;;;;5045629;28;20040;-78
2021/12/12 07:50:41;;;;;;;66.97;25.92;;;5.50;99.90;;;;;;5054231;28;20080;-80
2021/12/12 07:53:07;;;;;;;70.30;26.52;;;5.70;99.90;;;;;;5053997;28;20026;-78
2021/12/12 07:55:34;;;;;;;58.38;25.00;;;5.60;99.90;;;;;;5046759;28;20025;-77
2021/12/12 07:58:03;;;;;;;66.45;22.90;;;5.60;99.90;;;;;;5049771;28;20029;-78
2021/12/12 08:00:30;;;;;;;60.97;22.08;;;5.60;99.90;;;;;;5042713;28;20375;-78
2021/12/12 08:02:57;;;;;;;53.17;22.15;;;5.60;99.90;;;;;;5042889;28;20037;-82
2021/12/12 08:05:29;;;;;;;56.20;20.90;;;5.60;99.90;;;;;;5041730;28;20032;-78
2021/12/12 08:08:01;;;;;;;52.85;18.75;;;5.70;99.90;;;;;;5046012;28;20052;-80
2021/12/12 08:10:28;;;;;;;54.25;19.35;;;5.70;99.90;;;;;;5047888;28;20095;-79
2021/12/12 08:12:54;;;;;;;48.75;18.45;;;5.70;99.90;;;;;;5049371;28;20025;-77
2021/12/12 08:15:21;;;;;;;58.20;18.52;;;5.70;99.90;;;;;;5049664;28;20033;-77
2021/12/12 08:17:47;;;;;;;54.20;19.67;;;5.70;99.90;;;;;;5048550;28;20554;-78
2021/12/12 08:20:16;;;;;;;48.88;16.67;;;5.70;99.90;;;;;;5049035;28;20029;-79
2021/12/12 08:22:44;;;;;;;46.05;16.10;;;5.70;99.90;;;;;;5056243;28;20025;-78
2021/12/12 08:25:12;;;;;;;45.67;16.45;;;5.90;99.90;;;;;;5043359;28;20052;-79
2021/12/12 08:27:38;;;;;;;53.17;17.58;;;5.80;99.90;;;;;;5046558;28;20044;-77
2021/12/12 08:30:05;;;;;;;49.53;16.98;;;5.70;99.90;;;;;;5061440;28;20490;-78
2021/12/12 08:32:31;;;;;;;47.08;17.15;;;5.80;99.90;;;;;;5044024;28;20041;-80
2021/12/12 08:34:57;;;;;;;48.78;18.85;;;5.80;99.90;;;;;;5049633;28;20032;-78
2021/12/12 08:37:25;;;;;;;47.47;19.38;;;5.70;99.90;;;;;;5049061;28;20030;-78
2021/12/12 08:39:50;;;;;;;63.45;21.92;;;5.70;99.90;;;;;;5046260;28;20024;-78
2021/12/12 08:42:16;;;;;;;51.97;20.00;;;5.70;99.90;;;;;;5053433;28;20025;-77
2021/12/12 08:44:42;;;;;;;50.88;19.80;;;5.70;99.90;;;;;;5053879;28;20145;-77
2021/12/12 08:47:10;;;;;;;53.65;18.17;;;5.70;99.90;;;;;;5049412;28;20033;-78
2021/12/12 08:49:38;;;;;;;52.78;18.67;;;5.70;99.90;;;;;;5040842;28;20364;-77
2021/12/12 08:52:07;;;;;;;46.50;18.83;;;5.80;99.90;;;;;;5039158;28;20552;-79
2021/12/12 08:54:36;;;;;;;58.20;21.02;;;5.80;99.90;;;;;;5038909;28;20470;-80
2021/12/12 08:57:09;;;;;;;47.47;17.77;;;5.90;99.90;;;;;;5039765;28;20032;-78
2021/12/12 08:59:39;;;;;;;39.90;16.33;;;5.90;99.90;;;;;;5042480;28;20030;-78
2021/12/12 09:02:11;;;;;;;46.20;15.98;;;5.90;99.90;;;;;;5043294;28;20026;-78
2021/12/12 09:04:49;;;;;;;45.25;14.80;;;5.90;99.90;;;;;;5043671;28;20063;-79
2021/12/12 09:07:21;;;;;;;38.58;14.02;;;5.90;99.90;;;;;;5052022;28;20029;-78
2021/12/12 09:09:52;;;;;;;32.40;13.15;;;5.90;99.90;;;;;;5053024;28;20060;-79
2021/12/12 09:12:29;;;;;;;40.13;13.50;;;5.90;99.90;;;;;;5055188;28;20022;-77
2021/12/12 09:15:03;;;;;;;28.42;11.27;;;5.90;99.90;;;;;;5042484;28;20029;-80
2021/12/12 09:17:32;;;;;;;29.60;11.13;;;5.90;99.90;;;;;;5040086;28;20525;-78
2021/12/12 09:20:04;;;;;;;29.15;10.93;;;5.90;99.90;;;;;;5039012;28;20116;-77
2021/12/12 09:22:42;;;;;;;32.88;11.32;;;5.90;99.90;;;;;;5047139;28;20036;-78
2021/12/12 09:25:12;;;;;;;25.95;11.18;;;5.90;99.90;;;;;;5041640;28;20025;-79
2021/12/12 09:27:46;;;;;;;31.48;10.73;;;5.90;99.90;;;;;;5048600;28;20052;-80
2021/12/12 09:30:18;;;;;;;22.20;10.07;;;6.00;99.90;;;;;;5043965;28;20025;-80
2021/12/12 09:32:51;;;;;;;22.83;9.23;;;6.00;99.90;;;;;;5038857;28;20025;-80
2021/12/12 09:35:26;;;;;;;20.48;9.18;;;5.90;99.90;;;;;;5039539;28;20476;-80
2021/12/12 09:37:57;;;;;;;22.08;9.68;;;5.90;99.90;;;;;;5039087;28;20061;-80
2021/12/12 09:40:35;;;;;;;19.90;9.30;;;5.90;99.90;;;;;;5040471;28;20409;-78
2021/12/12 09:43:29;;;;;;;24.08;9.23;;;5.90;99.90;;;;;;5053943;28;20029;-76
2021/12/12 09:46:18;;;;;;;19.08;7.55;;;6.00;99.90;;;;;;5057230;28;20049;-76
2021/12/12 09:52:12;;;;;;;19.90;7.13;;;6.00;99.90;;;;;;5049643;28;20041;-79
2021/12/12 09:54:41;;;;;;;15.00;6.18;;;6.00;99.90;;;;;;5040703;28;20096;-79
2021/12/12 09:57:26;;;;;;;15.52;6.20;;;6.00;99.90;;;;;;5040392;28;20048;-78
2021/12/12 10:00:07;;;;;;;11.50;5.65;;;6.00;99.90;;;;;;5039282;28;20076;-79
2021/12/12 10:02:41;;;;;;;14.60;6.22;;;6.00;99.90;;;;;;5040610;28;20022;-79
2021/12/12 10:05:48;;;;;;;12.05;5.35;;;6.00;99.90;;;;;;5039317;28;20033;-79
2021/12/12 10:08:43;;;;;;;9.77;5.07;;;6.00;99.90;;;;;;5036512;28;20034;-80
2021/12/12 10:11:36;;;;;;;13.63;5.63;;;6.00;99.90;;;;;;5039299;28;20122;-79
2021/12/12 10:14:20;;;;;;;13.75;5.97;;;6.10;99.90;;;;;;5044305;28;20028;-78
2021/12/12 10:17:00;;;;;;;9.20;5.32;;;6.10;99.90;;;;;;5053634;28;20056;-78
2021/12/12 10:19:41;;;;;;;10.73;5.43;;;6.10;99.90;;;;;;5043897;28;20030;-79
2021/12/12 10:22:20;;;;;;;14.90;6.00;;;6.10;99.90;;;;;;5042339;28;20043;-77
2021/12/12 10:25:09;;;;;;;11.05;5.25;;;6.10;99.90;;;;;;5045019;28;20026;-79
2021/12/12 10:27:38;;;;;;;15.05;6.70;;;6.10;99.90;;;;;;5044480;28;20068;-77
2021/12/12 10:30:21;;;;;;;11.07;5.45;;;6.10;99.90;;;;;;5045648;28;20059;-79
2021/12/12 10:33:25;;;;;;;12.70;6.28;;;6.10;99.90;;;;;;5045438;28;20089;-78
2021/12/12 10:35:59;;;;;;;11.32;5.65;;;6.20;99.90;;;;;;5024456;28;20026;-77
2021/12/12 10:38:32;;;;;;;12.98;6.00;;;6.20;99.90;;;;;;5043172;28;20036;-80
2021/12/12 10:41:27;;;;;;;9.47;5.63;;;6.20;99.90;;;;;;5045009;28;20026;-79
2021/12/12 10:44:14;;;;;;;10.85;5.07;;;6.20;99.90;;;;;;5046671;28;20018;-79
2021/12/12 10:47:04;;;;;;;13.52;5.30;;;6.20;99.90;;;;;;5049861;28;20029;-81
2021/12/12 10:49:39;;;;;;;9.10;4.60;;;6.30;99.90;;;;;;5041901;28;20026;-79
2021/12/12 10:52:15;;;;;;;9.13;4.90;;;6.20;99.90;;;;;;5052544;28;20022;-77
2021/12/12 10:54:55;;;;;;;12.73;4.65;;;6.20;99.90;;;;;;5046396;28;20021;-80
2021/12/12 10:57:29;;;;;;;11.50;5.00;;;6.30;99.90;;;;;;5046288;28;20029;-77
2021/12/12 11:00:11;;;;;;;9.88;4.57;;;6.30;99.90;;;;;;5042830;28;20083;-79
2021/12/12 11:02:47;;;;;;;9.15;4.95;;;6.30;99.90;;;;;;5042107;28;20043;-77
2021/12/12 11:05:18;;;;;;;7.10;4.57;;;6.20;99.90;;;;;;5044292;28;20040;-80
2021/12/12 11:07:52;;;;;;;12.57;4.53;;;6.20;99.90;;;;;;5042372;28;20024;-79
2021/12/12 11:10:24;;;;;;;11.23;5.53;;;6.30;99.90;;;;;;5043786;28;20448;-80
2021/12/12 11:13:03;;;;;;;7.72;4.22;;;6.30;99.90;;;;;;5041849;28;20026;-82
2021/12/12 11:15:53;;;;;;;9.43;4.80;;;6.30;99.90;;;;;;5040191;28;20022;-83
2021/12/12 11:18:28;;;;;;;9.38;4.45;;;6.40;99.90;;;;;;5041872;28;20039;-81
2021/12/12 11:20:59;;;;;;;;;;;6.40;99.90;;;;;;5039983;28;20025;-80
2021/12/12 11:23:32;;;;;;;6.65;4.40;;;6.40;99.90;;;;;;5039486;28;19992;-81
2021/12/12 11:26:06;;;;;;;11.73;5.65;;;6.40;99.90;;;;;;5045931;28;20033;-78
2021/12/12 11:28:43;;;;;;;11.27;4.67;;;6.40;99.90;;;;;;5048337;28;20032;-76
2021/12/12 11:31:19;;;;;;;9.80;4.75;;;6.40;99.90;;;;;;5052221;28;20045;-77
2021/12/12 11:33:49;;;;;;;10.95;5.20;;;6.40;99.90;;;;;;5060419;28;20006;-76
2021/12/12 11:36:21;;;;;;;7.03;4.95;;;6.50;99.90;;;;;;5060787;28;20022;-75
2021/12/12 11:39:12;;;;;;;7.28;4.63;;;6.50;99.90;;;;;;5046448;28;20035;-79
2021/12/12 11:41:53;;;;;;;7.88;4.30;;;6.50;99.90;;;;;;5048172;28;20036;-76
2021/12/12 11:44:24;;;;;;;8.90;5.38;;;6.50;99.90;;;;;;5053875;28;20028;-79
2021/12/12 11:46:59;;;;;;;9.43;4.97;;;6.50;99.90;;;;;;5053806;28;20060;-76
2021/12/12 11:49:39;;;;;;;11.98;6.35;;;6.60;99.90;;;;;;5054839;28;20087;-80
2021/12/12 11:52:13;;;;;;;13.27;5.72;;;6.60;99.90;;;;;;5048119;28;20028;-78
2021/12/12 11:55:00;;;;;;;10.63;5.50;;;6.50;99.90;;;;;;5045798;28;20030;-79
2021/12/12 11:57:38;;;;;;;10.18;5.60;;;6.60;99.90;;;;;;5042627;28;20017;-80
2021/12/12 12:00:20;;;;;;;10.90;5.63;;;6.60;99.90;;;;;;5042841;28;20083;-80
2021/12/12 12:03:23;;;;;;;11.18;6.05;;;6.60;99.90;;;;;;5042242;28;20097;-80
2021/12/12 12:06:10;;;;;;;12.15;7.40;;;6.60;99.90;;;;;;5045321;28;20104;-80
2021/12/12 12:08:55;;;;;;;9.68;6.35;;;6.60;99.90;;;;;;5048868;28;20036;-78
2021/12/12 12:11:26;;;;;;;12.50;7.65;;;6.50;99.90;;;;;;5047205;28;20028;-82
2021/12/12 12:14:33;;;;;;;14.70;7.18;;;6.50;99.90;;;;;;5050553;28;20022;-78
2021/12/12 12:17:08;;;;;;;11.30;6.47;;;6.60;99.90;;;;;;5045085;28;20040;-79
2021/12/12 12:19:52;;;;;;;;;;;6.60;99.90;;;;;;5042325;28;20025;-79
2021/12/12 12:22:32;;;;;;;14.35;7.40;;;6.60;99.90;;;;;;5042454;28;19915;-80
2021/12/12 12:25:16;;;;;;;14.85;8.98;;;6.60;99.90;;;;;;5041913;28;20033;-79
2021/12/12 12:27:57;;;;;;;14.07;7.87;;;6.70;99.90;;;;;;5051898;28;20093;-78
2021/12/12 12:30:50;;;;;;;13.07;7.97;;;6.70;99.90;;;;;;5056502;28;20034;-76
2021/12/12 12:33:54;;;;;;;11.45;7.82;;;6.70;99.90;;;;;;5055750;28;20026;-77
2021/12/12 12:36:47;;;;;;;14.50;8.05;;;6.70;99.90;;;;;;5055257;28;20063;-79
2021/12/12 12:39:31;;;;;;;11.80;8.00;;;6.70;99.90;;;;;;5043409;28;20040;-79
2021/12/12 12:42:37;;;;;;;12.43;7.85;;;6.80;99.90;;;;;;5051647;28;20051;-79
2021/12/12 12:45:21;;;;;;;;;;;6.80;99.90;;;;;;5044831;28;20060;-75
2021/12/12 12:48:12;;;;;;;11.93;8.10;;;6.80;99.90;;;;;;5041630;28;19916;-76
2021/12/12 12:50:39;;;;;;;16.55;8.05;;;6.90;99.90;;;;;;5058957;28;20037;-73
2021/12/12 12:53:30;;;;;;;14.23;7.82;;;6.90;99.90;;;;;;5058786;28;20009;-75
2021/12/12 12:56:14;;;;;;;10.85;7.90;;;6.90;99.90;;;;;;5059277;28;20033;-76
2021/12/12 12:58:58;;;;;;;14.65;10.80;;;6.90;99.90;;;;;;5054543;28;20104;-79
2021/12/12 13:01:46;;;;;;;12.80;8.00;;;6.90;99.90;;;;;;5041568;28;20055;-78
2021/12/12 13:04:23;;;;;;;10.15;7.60;;;7.00;99.90;;;;;;5039599;28;20078;-77
2021/12/12 13:07:17;;;;;;;14.32;8.70;;;7.00;99.90;;;;;;5046116;28;20029;-77
2021/12/12 13:09:49;;;;;;;12.05;7.90;;;6.90;99.90;;;;;;5050972;28;20026;-78
2021/12/12 13:12:36;;;;;;;11.80;7.80;;;7.00;99.90;;;;;;5051191;28;20022;-77
2021/12/12 13:15:01;;;;;;;10.93;8.02;;;7.00;99.90;;;;;;5044997;28;20022;-79
2021/12/12 13:17:41;;;;;;;11.65;8.73;;;7.10;99.90;;;;;;5047246;28;20068;-76
2021/12/12 13:20:44;;;;;;;10.52;7.80;;;7.20;99.90;;;;;;5055092;28;20037;-79